Внуково

Карта отелей и гостиниц, располагающихся рядом с аэропортом Внуково :

Внуково
Москва
Москва 55° 36' 0" N, 37° 16' 23.9988" E
Код аэродрома ИКАО
UUWW
Код аэродрома RU
УУВВ
Координаты
N55.60000° E037.27333°
Превышение над уровнем моря
209
Основная полоса
06/24
Курс магнитный
057,5/237,5
Длина основной ВПП
3507
Ширина основной ВПП
60
Покрытие основной ВПП
Твёрдое
Освещение ВПП
Постоянное
Тип: 
Аэродром
Класс аэродрома: 
Международный
Принадлежность: 
ГА
Статус: 
Действующий
Сайт: 
http://vnukovo.ru/
Страна: 
Россия
Регион: 
Москва
Город: 
Москва
Дополнительная информация: 
Оператор: ОАО «Международный аэропорт «Внуково». Аэродромный комплекс Внуково располагает двумя полностью реконструированными ИВПП, пропускная способность которых составляет до 60 операций в час. Аэродром сертифицирован для приема ВС всех типов, включая такие, как Airbus 380 и Boeing 747 в любых метеоусловиях.
Погода: 

Авиационная погода в Москва - Внуково

Погода METAR: 
UUWW 281300Z 22006MPS 9999 -RA BKN007 OVC022 02/01 Q1005 R24/290050 TEMPO BKN004
Время наблюдения
2021-11-28T13:00:00Z
Температура C
2.0
Точка росы
1.0
Направление ветра
220
Скорость ветра (узлы)
12
Метео видимость
6.21
Явления погоды
-RA
Условия полета
IFR
Аэропорт подробнее: 

Найти трансфер

С помощью этой формы Вы можете найти трансфер из аэропорта Внуково в город, аэропорт или вокзал:

Карта места

Javascript is required to view this map.

Погода в аэропортах:

Авиационная погода в Ханты-Мансийске

Регион: 
Погода METAR: 
USHH 281300Z 15002MPS 9999 -SN SCT008 M04/M04 Q1020 R06/450332 NOSIG
Время наблюдения
2021-11-28T13:00:00Z
Температура C
-4.0
Точка росы
-4.0
Направление ветра
150
Скорость ветра (узлы)
4
Метео видимость
6.21
Явления погоды
-SN
Условия полета
VFR
Аэропорт подробнее: 

Авиационная погода в Вадсё

Регион: 
Погода METAR: 
ENVD 281020Z 20009KT 2500 BR VV003 M11/M12 Q1010 RMK ARCTIC SEAMOKE
Время наблюдения
2021-11-28T10:20:00Z
Температура C
-11.0
Точка росы
-12.0
Направление ветра
200
Скорость ветра (узлы)
9
Метео видимость
1.55
Явления погоды
BR
Условия полета
LIFR

Авиационная погода в Аулие-Ата

Регион: 
Погода METAR: 
UADD 281400Z VRB01MPS 0000 R31/0150D FZFG VV003 M07/M08 Q1024 TEMPO 0100 FZFG VV001 RMK QBB100 MT OBSC QFE709/0946
Время наблюдения
2021-11-28T14:00:00Z
Температура C
-7.0
Точка росы
-8.0
Направление ветра
0
Скорость ветра (узлы)
2
Метео видимость
0.0
Явления погоды
FZFG
Условия полета
LIFR
Аэропорт подробнее: 

Авиационная погода в Николаеве

Регион: 
Погода METAR: 
UKON 281300Z 13003MPS 2600 -SHRA BR BKN005 BKN///CB 12/12 Q1003 NOSIG
Время наблюдения
2021-11-28T13:00:00Z
Температура C
12.0
Точка росы
12.0
Направление ветра
130
Скорость ветра (узлы)
6
Метео видимость
1.62
Явления погоды
-SHRA BR
Условия полета
IFR